sensor_id;sensor_type;location;lat;lon;timestamp;P1;durP1;ratioP1;P2;durP2;ratioP2
19861;SDS011;10093;48.148;8.542;2022-09-09T00:00:13;2.58;;;0.70;;
19861;SDS011;10093;48.148;8.542;2022-09-09T00:02:43;2.38;;;0.70;;
19861;SDS011;10093;48.148;8.542;2022-09-09T00:07:53;1.95;;;0.80;;
19861;SDS011;10093;48.148;8.542;2022-09-09T00:16:17;4.78;;;0.90;;
19861;SDS011;10093;48.148;8.542;2022-09-09T00:19:07;3.67;;;1.00;;
19861;SDS011;10093;48.148;8.542;2022-09-09T00:24:41;2.80;;;1.00;;
19861;SDS011;10093;48.148;8.542;2022-09-09T00:32:38;3.88;;;1.15;;
19861;SDS011;10093;48.148;8.542;2022-09-09T00:35:18;1.70;;;1.00;;
19861;SDS011;10093;48.148;8.542;2022-09-09T00:37:50;2.78;;;0.90;;
19861;SDS011;10093;48.148;8.542;2022-09-09T00:40:34;3.80;;;0.88;;
19861;SDS011;10093;48.148;8.542;2022-09-09T00:43:46;5.07;;;0.90;;
19861;SDS011;10093;48.148;8.542;2022-09-09T00:51:39;5.85;;;1.10;;
19861;SDS011;10093;48.148;8.542;2022-09-09T00:57:43;2.33;;;0.80;;
19861;SDS011;10093;48.148;8.542;2022-09-09T01:03:10;3.45;;;0.90;;
19861;SDS011;10093;48.148;8.542;2022-09-09T01:06:02;4.03;;;1.05;;
19861;SDS011;10093;48.148;8.542;2022-09-09T01:11:48;3.17;;;1.17;;
19861;SDS011;10093;48.148;8.542;2022-09-09T01:14:24;7.53;;;1.17;;
19861;SDS011;10093;48.148;8.542;2022-09-09T01:17:14;6.03;;;1.27;;
19861;SDS011;10093;48.148;8.542;2022-09-09T01:22:22;7.38;;;1.30;;
19861;SDS011;10093;48.148;8.542;2022-09-09T01:25:19;3.70;;;1.40;;
19861;SDS011;10093;48.148;8.542;2022-09-09T01:27:50;2.40;;;1.10;;
19861;SDS011;10093;48.148;8.542;2022-09-09T01:30:19;4.40;;;1.10;;
19861;SDS011;10093;48.148;8.542;2022-09-09T01:32:47;2.13;;;0.60;;
19861;SDS011;10093;48.148;8.542;2022-09-09T01:35:20;3.17;;;0.68;;
19861;SDS011;10093;48.148;8.542;2022-09-09T01:37:48;2.67;;;0.63;;
19861;SDS011;10093;48.148;8.542;2022-09-09T01:40:14;2.28;;;0.80;;
19861;SDS011;10093;48.148;8.542;2022-09-09T01:42:40;4.40;;;0.88;;
19861;SDS011;10093;48.148;8.542;2022-09-09T01:45:06;2.97;;;0.88;;
19861;SDS011;10093;48.148;8.542;2022-09-09T01:47:32;3.35;;;0.70;;
19861;SDS011;10093;48.148;8.542;2022-09-09T01:49:57;5.88;;;1.00;;
19861;SDS011;10093;48.148;8.542;2022-09-09T01:52:24;5.25;;;0.85;;
19861;SDS011;10093;48.148;8.542;2022-09-09T01:54:50;1.85;;;0.88;;
19861;SDS011;10093;48.148;8.542;2022-09-09T01:57:27;5.57;;;0.95;;
19861;SDS011;10093;48.148;8.542;2022-09-09T02:00:07;6.32;;;0.98;;
19861;SDS011;10093;48.148;8.542;2022-09-09T02:08:10;2.80;;;0.85;;
19861;SDS011;10093;48.148;8.542;2022-09-09T02:10:47;2.63;;;0.88;;
19861;SDS011;10093;48.148;8.542;2022-09-09T02:13:21;1.02;;;0.70;;
19861;SDS011;10093;48.148;8.542;2022-09-09T02:21:33;2.97;;;0.90;;
19861;SDS011;10093;48.148;8.542;2022-09-09T02:24:02;1.55;;;0.77;;
19861;SDS011;10093;48.148;8.542;2022-09-09T02:26:33;3.25;;;0.82;;
19861;SDS011;10093;48.148;8.542;2022-09-09T02:29:04;2.28;;;0.80;;
19861;SDS011;10093;48.148;8.542;2022-09-09T02:31:36;2.60;;;0.88;;
19861;SDS011;10093;48.148;8.542;2022-09-09T02:34:03;3.90;;;0.45;;
19861;SDS011;10093;48.148;8.542;2022-09-09T02:36:33;4.68;;;0.70;;
19861;SDS011;10093;48.148;8.542;2022-09-09T02:39:00;4.72;;;0.80;;
19861;SDS011;10093;48.148;8.542;2022-09-09T02:41:31;1.88;;;0.68;;
19861;SDS011;10093;48.148;8.542;2022-09-09T02:44:01;5.32;;;0.70;;
19861;SDS011;10093;48.148;8.542;2022-09-09T02:49:39;2.85;;;1.23;;
19861;SDS011;10093;48.148;8.542;2022-09-09T02:52:15;4.47;;;1.50;;
19861;SDS011;10093;48.148;8.542;2022-09-09T02:54:45;4.53;;;1.45;;
19861;SDS011;10093;48.148;8.542;2022-09-09T02:57:17;1.38;;;0.95;;
19861;SDS011;10093;48.148;8.542;2022-09-09T02:59:46;4.82;;;1.50;;
19861;SDS011;10093;48.148;8.542;2022-09-09T03:02:12;3.08;;;1.20;;
19861;SDS011;10093;48.148;8.542;2022-09-09T03:04:38;5.22;;;1.42;;
19861;SDS011;10093;48.148;8.542;2022-09-09T03:07:05;4.07;;;1.38;;
19861;SDS011;10093;48.148;8.542;2022-09-09T03:09:31;7.38;;;1.10;;
19861;SDS011;10093;48.148;8.542;2022-09-09T03:11:57;5.25;;;2.17;;
19861;SDS011;10093;48.148;8.542;2022-09-09T03:14:23;6.35;;;2.13;;
19861;SDS011;10093;48.148;8.542;2022-09-09T03:16:52;3.97;;;1.70;;
19861;SDS011;10093;48.148;8.542;2022-09-09T03:19:18;2.40;;;1.00;;
19861;SDS011;10093;48.148;8.542;2022-09-09T03:21:45;2.67;;;1.08;;
19861;SDS011;10093;48.148;8.542;2022-09-09T03:24:11;1.73;;;1.20;;
19861;SDS011;10093;48.148;8.542;2022-09-09T03:26:37;6.35;;;1.30;;
19861;SDS011;10093;48.148;8.542;2022-09-09T03:29:03;8.23;;;1.20;;
19861;SDS011;10093;48.148;8.542;2022-09-09T03:31:31;2.78;;;1.75;;
19861;SDS011;10093;48.148;8.542;2022-09-09T03:33:58;4.10;;;2.00;;
19861;SDS011;10093;48.148;8.542;2022-09-09T03:36:24;6.70;;;1.98;;
19861;SDS011;10093;48.148;8.542;2022-09-09T03:38:51;5.22;;;2.28;;
19861;SDS011;10093;48.148;8.542;2022-09-09T03:41:17;5.95;;;1.70;;
19861;SDS011;10093;48.148;8.542;2022-09-09T03:43:43;4.68;;;1.85;;
19861;SDS011;10093;48.148;8.542;2022-09-09T03:46:09;4.20;;;1.83;;
19861;SDS011;10093;48.148;8.542;2022-09-09T03:48:35;6.78;;;2.17;;
19861;SDS011;10093;48.148;8.542;2022-09-09T03:51:00;3.83;;;2.10;;
19861;SDS011;10093;48.148;8.542;2022-09-09T03:53:27;3.90;;;2.40;;
19861;SDS011;10093;48.148;8.542;2022-09-09T03:55:54;5.40;;;2.85;;
19861;SDS011;10093;48.148;8.542;2022-09-09T03:58:23;5.18;;;2.67;;
19861;SDS011;10093;48.148;8.542;2022-09-09T04:03:21;9.85;;;3.22;;
19861;SDS011;10093;48.148;8.542;2022-09-09T04:05:49;5.50;;;3.10;;
19861;SDS011;10093;48.148;8.542;2022-09-09T04:08:16;4.07;;;2.55;;
19861;SDS011;10093;48.148;8.542;2022-09-09T04:10:44;6.93;;;2.65;;
19861;SDS011;10093;48.148;8.542;2022-09-09T04:13:11;6.03;;;2.50;;
19861;SDS011;10093;48.148;8.542;2022-09-09T04:15:40;11.30;;;4.15;;
19861;SDS011;10093;48.148;8.542;2022-09-09T04:18:06;4.85;;;2.72;;
19861;SDS011;10093;48.148;8.542;2022-09-09T04:20:32;6.68;;;3.35;;
19861;SDS011;10093;48.148;8.542;2022-09-09T04:22:58;5.95;;;3.00;;
19861;SDS011;10093;48.148;8.542;2022-09-09T04:25:24;12.50;;;4.15;;
19861;SDS011;10093;48.148;8.542;2022-09-09T04:27:53;12.63;;;4.43;;
19861;SDS011;10093;48.148;8.542;2022-09-09T04:30:19;3.30;;;2.30;;
19861;SDS011;10093;48.148;8.542;2022-09-09T04:32:46;3.22;;;2.25;;
19861;SDS011;10093;48.148;8.542;2022-09-09T04:35:11;4.75;;;2.45;;
19861;SDS011;10093;48.148;8.542;2022-09-09T04:37:37;2.85;;;2.28;;
19861;SDS011;10093;48.148;8.542;2022-09-09T04:40:03;6.50;;;3.20;;
19861;SDS011;10093;48.148;8.542;2022-09-09T04:42:28;5.10;;;2.67;;
19861;SDS011;10093;48.148;8.542;2022-09-09T04:44:54;10.70;;;3.75;;
19861;SDS011;10093;48.148;8.542;2022-09-09T04:47:20;8.93;;;2.78;;
19861;SDS011;10093;48.148;8.542;2022-09-09T04:49:46;5.65;;;2.47;;
19861;SDS011;10093;48.148;8.542;2022-09-09T04:52:12;2.83;;;1.67;;
19861;SDS011;10093;48.148;8.542;2022-09-09T04:54:38;3.97;;;1.70;;
19861;SDS011;10093;48.148;8.542;2022-09-09T04:57:04;2.97;;;1.70;;
19861;SDS011;10093;48.148;8.542;2022-09-09T04:59:30;4.55;;;2.30;;
19861;SDS011;10093;48.148;8.542;2022-09-09T05:01:55;6.30;;;2.28;;
19861;SDS011;10093;48.148;8.542;2022-09-09T05:04:21;4.65;;;2.28;;
19861;SDS011;10093;48.148;8.542;2022-09-09T05:06:46;5.50;;;1.90;;
19861;SDS011;10093;48.148;8.542;2022-09-09T05:09:13;2.75;;;1.60;;
19861;SDS011;10093;48.148;8.542;2022-09-09T05:11:38;4.03;;;2.25;;
19861;SDS011;10093;48.148;8.542;2022-09-09T05:14:04;6.57;;;2.28;;
19861;SDS011;10093;48.148;8.542;2022-09-09T05:16:30;3.67;;;1.67;;
19861;SDS011;10093;48.148;8.542;2022-09-09T05:18:56;5.35;;;2.22;;
19861;SDS011;10093;48.148;8.542;2022-09-09T05:21:22;5.70;;;2.05;;
19861;SDS011;10093;48.148;8.542;2022-09-09T05:23:50;8.25;;;2.28;;
19861;SDS011;10093;48.148;8.542;2022-09-09T05:26:16;4.25;;;2.40;;
19861;SDS011;10093;48.148;8.542;2022-09-09T05:28:44;6.65;;;2.40;;
19861;SDS011;10093;48.148;8.542;2022-09-09T05:31:11;5.82;;;1.83;;
19861;SDS011;10093;48.148;8.542;2022-09-09T05:33:38;2.83;;;1.80;;
19861;SDS011;10093;48.148;8.542;2022-09-09T05:36:15;3.50;;;2.22;;
19861;SDS011;10093;48.148;8.542;2022-09-09T05:38:42;3.70;;;1.55;;
19861;SDS011;10093;48.148;8.542;2022-09-09T05:41:09;6.88;;;1.60;;
19861;SDS011;10093;48.148;8.542;2022-09-09T05:43:40;2.15;;;1.42;;
19861;SDS011;10093;48.148;8.542;2022-09-09T05:46:09;3.40;;;1.00;;
19861;SDS011;10093;48.148;8.542;2022-09-09T05:48:38;5.10;;;1.00;;
19861;SDS011;10093;48.148;8.542;2022-09-09T05:51:06;1.75;;;0.68;;
19861;SDS011;10093;48.148;8.542;2022-09-09T05:53:33;2.38;;;0.95;;
19861;SDS011;10093;48.148;8.542;2022-09-09T05:56:03;2.70;;;0.60;;
19861;SDS011;10093;48.148;8.542;2022-09-09T05:58:35;1.30;;;1.00;;
19861;SDS011;10093;48.148;8.542;2022-09-09T06:01:02;1.65;;;0.85;;
19861;SDS011;10093;48.148;8.542;2022-09-09T06:03:30;2.10;;;0.88;;
19861;SDS011;10093;48.148;8.542;2022-09-09T06:05:59;2.10;;;1.00;;
19861;SDS011;10093;48.148;8.542;2022-09-09T06:08:26;1.83;;;0.75;;
19861;SDS011;10093;48.148;8.542;2022-09-09T06:10:52;5.90;;;1.10;;
19861;SDS011;10093;48.148;8.542;2022-09-09T06:13:17;1.02;;;0.60;;
19861;SDS011;10093;48.148;8.542;2022-09-09T06:15:50;1.70;;;0.80;;
19861;SDS011;10093;48.148;8.542;2022-09-09T06:18:17;2.22;;;0.85;;
19861;SDS011;10093;48.148;8.542;2022-09-09T06:20:52;5.07;;;0.93;;
19861;SDS011;10093;48.148;8.542;2022-09-09T06:28:10;2.90;;;0.70;;
19861;SDS011;10093;48.148;8.542;2022-09-09T06:30:36;2.30;;;0.88;;
19861;SDS011;10093;48.148;8.542;2022-09-09T06:33:02;3.42;;;1.05;;
19861;SDS011;10093;48.148;8.542;2022-09-09T06:35:28;2.35;;;0.80;;
19861;SDS011;10093;48.148;8.542;2022-09-09T06:37:54;4.10;;;0.70;;
19861;SDS011;10093;48.148;8.542;2022-09-09T06:40:19;5.03;;;0.90;;
19861;SDS011;10093;48.148;8.542;2022-09-09T06:42:45;3.50;;;0.80;;
19861;SDS011;10093;48.148;8.542;2022-09-09T06:45:10;1.70;;;0.63;;
19861;SDS011;10093;48.148;8.542;2022-09-09T06:47:37;1.48;;;0.85;;
19861;SDS011;10093;48.148;8.542;2022-09-09T06:50:02;3.53;;;1.00;;
19861;SDS011;10093;48.148;8.542;2022-09-09T06:52:28;3.42;;;0.80;;
19861;SDS011;10093;48.148;8.542;2022-09-09T06:54:53;6.00;;;1.17;;
19861;SDS011;10093;48.148;8.542;2022-09-09T06:57:19;4.35;;;1.17;;
19861;SDS011;10093;48.148;8.542;2022-09-09T06:59:45;7.55;;;1.48;;
19861;SDS011;10093;48.148;8.542;2022-09-09T07:02:10;5.03;;;0.90;;
19861;SDS011;10093;48.148;8.542;2022-09-09T07:04:36;2.92;;;1.23;;
19861;SDS011;10093;48.148;8.542;2022-09-09T07:07:02;5.25;;;1.20;;
19861;SDS011;10093;48.148;8.542;2022-09-09T07:09:27;1.65;;;1.20;;
19861;SDS011;10093;48.148;8.542;2022-09-09T07:11:54;4.55;;;1.20;;
19861;SDS011;10093;48.148;8.542;2022-09-09T07:14:23;2.10;;;1.20;;
19861;SDS011;10093;48.148;8.542;2022-09-09T07:16:48;4.47;;;0.88;;
19861;SDS011;10093;48.148;8.542;2022-09-09T07:19:14;3.30;;;1.10;;
19861;SDS011;10093;48.148;8.542;2022-09-09T07:21:40;2.97;;;1.17;;
19861;SDS011;10093;48.148;8.542;2022-09-09T07:24:05;3.35;;;1.13;;
19861;SDS011;10093;48.148;8.542;2022-09-09T07:26:35;4.00;;;1.33;;
19861;SDS011;10093;48.148;8.542;2022-09-09T07:29:01;4.30;;;0.80;;
19861;SDS011;10093;48.148;8.542;2022-09-09T07:31:28;2.35;;;0.93;;
19861;SDS011;10093;48.148;8.542;2022-09-09T07:33:56;3.58;;;1.90;;
19861;SDS011;10093;48.148;8.542;2022-09-09T07:36:26;3.83;;;1.20;;
19861;SDS011;10093;48.148;8.542;2022-09-09T07:38:57;5.50;;;1.85;;
19861;SDS011;10093;48.148;8.542;2022-09-09T07:41:28;3.15;;;1.60;;
19861;SDS011;10093;48.148;8.542;2022-09-09T07:43:59;2.72;;;1.17;;
19861;SDS011;10093;48.148;8.542;2022-09-09T07:46:25;2.20;;;1.15;;
19861;SDS011;10093;48.148;8.542;2022-09-09T07:48:52;4.47;;;2.05;;
19861;SDS011;10093;48.148;8.542;2022-09-09T07:51:20;6.65;;;2.00;;
19861;SDS011;10093;48.148;8.542;2022-09-09T07:53:51;4.65;;;1.60;;
19861;SDS011;10093;48.148;8.542;2022-09-09T07:56:18;2.55;;;1.40;;
19861;SDS011;10093;48.148;8.542;2022-09-09T07:58:48;3.92;;;0.80;;
19861;SDS011;10093;48.148;8.542;2022-09-09T08:01:19;3.55;;;0.95;;
19861;SDS011;10093;48.148;8.542;2022-09-09T08:03:51;2.42;;;0.68;;
19861;SDS011;10093;48.148;8.542;2022-09-09T08:06:18;0.57;;;0.50;;
19861;SDS011;10093;48.148;8.542;2022-09-09T08:08:44;2.25;;;0.52;;
19861;SDS011;10093;48.148;8.542;2022-09-09T08:11:13;0.85;;;0.30;;
19861;SDS011;10093;48.148;8.542;2022-09-09T08:13:40;1.85;;;0.35;;
19861;SDS011;10093;48.148;8.542;2022-09-09T08:16:14;1.85;;;0.30;;
19861;SDS011;10093;48.148;8.542;2022-09-09T08:18:42;2.80;;;0.30;;
19861;SDS011;10093;48.148;8.542;2022-09-09T08:21:14;3.50;;;0.40;;
19861;SDS011;10093;48.148;8.542;2022-09-09T08:23:43;4.25;;;0.30;;
19861;SDS011;10093;48.148;8.542;2022-09-09T08:28:38;2.33;;;0.40;;
19861;SDS011;10093;48.148;8.542;2022-09-09T08:34:02;1.17;;;0.40;;
19861;SDS011;10093;48.148;8.542;2022-09-09T08:36:29;3.35;;;0.30;;
19861;SDS011;10093;48.148;8.542;2022-09-09T08:38:58;2.15;;;0.30;;
19861;SDS011;10093;48.148;8.542;2022-09-09T08:52:17;3.13;;;0.30;;
19861;SDS011;10093;48.148;8.542;2022-09-09T08:54:48;1.65;;;0.40;;
19861;SDS011;10093;48.148;8.542;2022-09-09T08:57:18;3.25;;;0.43;;
19861;SDS011;10093;48.148;8.542;2022-09-09T08:59:51;1.95;;;0.40;;
19861;SDS011;10093;48.148;8.542;2022-09-09T09:08:24;2.83;;;0.52;;
19861;SDS011;10093;48.148;8.542;2022-09-09T09:10:55;1.60;;;0.35;;
19861;SDS011;10093;48.148;8.542;2022-09-09T09:16:21;1.67;;;0.57;;
19861;SDS011;10093;48.148;8.542;2022-09-09T09:27:15;1.63;;;0.30;;
19861;SDS011;10093;48.148;8.542;2022-09-09T09:29:46;3.88;;;0.57;;
19861;SDS011;10093;48.148;8.542;2022-09-09T09:32:16;2.00;;;0.40;;
19861;SDS011;10093;48.148;8.542;2022-09-09T09:34:56;3.40;;;0.40;;
19861;SDS011;10093;48.148;8.542;2022-09-09T09:37:28;5.45;;;0.40;;
19861;SDS011;10093;48.148;8.542;2022-09-09T09:39:56;2.67;;;0.40;;
19861;SDS011;10093;48.148;8.542;2022-09-09T09:42:34;3.10;;;0.30;;
19861;SDS011;10093;48.148;8.542;2022-09-09T09:47:57;3.80;;;0.30;;
19861;SDS011;10093;48.148;8.542;2022-09-09T09:50:24;2.25;;;0.20;;
19861;SDS011;10093;48.148;8.542;2022-09-09T09:52:53;2.60;;;0.28;;
19861;SDS011;10093;48.148;8.542;2022-09-09T09:55:20;3.85;;;0.20;;
19861;SDS011;10093;48.148;8.542;2022-09-09T09:57:49;1.92;;;0.30;;
19861;SDS011;10093;48.148;8.542;2022-09-09T10:00:18;2.78;;;0.30;;
19861;SDS011;10093;48.148;8.542;2022-09-09T10:02:46;3.05;;;0.30;;
19861;SDS011;10093;48.148;8.542;2022-09-09T10:07:38;1.65;;;0.20;;
19861;SDS011;10093;48.148;8.542;2022-09-09T10:10:04;1.67;;;0.20;;
19861;SDS011;10093;48.148;8.542;2022-09-09T10:21:53;2.05;;;0.20;;
19861;SDS011;10093;48.148;8.542;2022-09-09T10:26:55;0.43;;;0.20;;
19861;SDS011;10093;48.148;8.542;2022-09-09T10:32:12;1.73;;;0.20;;
19861;SDS011;10093;48.148;8.542;2022-09-09T10:40:34;1.10;;;0.10;;
19861;SDS011;10093;48.148;8.542;2022-09-09T10:46:07;1.17;;;0.10;;
19861;SDS011;10093;48.148;8.542;2022-09-09T10:57:20;2.38;;;0.10;;
19861;SDS011;10093;48.148;8.542;2022-09-09T10:59:50;0.52;;;0.20;;
19861;SDS011;10093;48.148;8.542;2022-09-09T11:02:31;1.80;;;0.10;;
19861;SDS011;10093;48.148;8.542;2022-09-09T11:05:06;1.35;;;0.30;;
19861;SDS011;10093;48.148;8.542;2022-09-09T11:07:44;0.17;;;0.10;;
19861;SDS011;10093;48.148;8.542;2022-09-09T11:13:03;0.73;;;0.03;;
19861;SDS011;10093;48.148;8.542;2022-09-09T11:15:42;1.10;;;0.20;;
19861;SDS011;10093;48.148;8.542;2022-09-09T11:18:18;1.48;;;0.17;;
19861;SDS011;10093;48.148;8.542;2022-09-09T11:20:47;0.88;;;0.13;;
19861;SDS011;10093;48.148;8.542;2022-09-09T11:23:32;2.70;;;0.20;;
19861;SDS011;10093;48.148;8.542;2022-09-09T11:26:07;1.58;;;0.20;;
19861;SDS011;10093;48.148;8.542;2022-09-09T11:39:44;2.53;;;0.10;;
19861;SDS011;10093;48.148;8.542;2022-09-09T11:42:23;1.02;;;0.10;;
19861;SDS011;10093;48.148;8.542;2022-09-09T11:44:49;1.33;;;0.20;;
19861;SDS011;10093;48.148;8.542;2022-09-09T11:47:20;2.40;;;0.13;;
19861;SDS011;10093;48.148;8.542;2022-09-09T11:50:09;1.10;;;0.10;;
19861;SDS011;10093;48.148;8.542;2022-09-09T11:52:42;3.17;;;0.10;;
19861;SDS011;10093;48.148;8.542;2022-09-09T11:55:32;0.32;;;0.00;;
19861;SDS011;10093;48.148;8.542;2022-09-09T11:58:00;1.63;;;0.10;;
19861;SDS011;10093;48.148;8.542;2022-09-09T12:00:35;2.55;;;0.40;;
19861;SDS011;10093;48.148;8.542;2022-09-09T12:03:10;2.80;;;0.20;;
19861;SDS011;10093;48.148;8.542;2022-09-09T12:05:57;2.10;;;0.20;;
19861;SDS011;10093;48.148;8.542;2022-09-09T12:08:27;0.85;;;0.10;;
19861;SDS011;10093;48.148;8.542;2022-09-09T12:10:55;1.33;;;0.20;;
19861;SDS011;10093;48.148;8.542;2022-09-09T12:13:28;1.88;;;0.20;;
19861;SDS011;10093;48.148;8.542;2022-09-09T12:15:56;2.10;;;0.20;;
19861;SDS011;10093;48.148;8.542;2022-09-09T12:18:31;0.73;;;0.10;;
19861;SDS011;10093;48.148;8.542;2022-09-09T12:23:45;3.55;;;0.20;;
19861;SDS011;10093;48.148;8.542;2022-09-09T12:31:46;4.95;;;0.13;;
19861;SDS011;10093;48.148;8.542;2022-09-09T12:37:15;0.47;;;0.10;;
19861;SDS011;10093;48.148;8.542;2022-09-09T12:40:03;1.63;;;0.10;;
19861;SDS011;10093;48.148;8.542;2022-09-09T12:42:31;1.75;;;0.30;;
19861;SDS011;10093;48.148;8.542;2022-09-09T12:45:01;2.00;;;0.20;;
19861;SDS011;10093;48.148;8.542;2022-09-09T12:47:43;2.95;;;0.20;;
19861;SDS011;10093;48.148;8.542;2022-09-09T12:50:27;1.30;;;0.10;;
19861;SDS011;10093;48.148;8.542;2022-09-09T12:52:58;2.90;;;0.20;;
19861;SDS011;10093;48.148;8.542;2022-09-09T12:55:28;1.88;;;0.20;;
19861;SDS011;10093;48.148;8.542;2022-09-09T12:57:58;2.42;;;0.20;;
19861;SDS011;10093;48.148;8.542;2022-09-09T13:00:25;3.88;;;0.20;;
19861;SDS011;10093;48.148;8.542;2022-09-09T13:02:56;2.58;;;0.30;;
19861;SDS011;10093;48.148;8.542;2022-09-09T13:08:03;2.03;;;0.20;;
19861;SDS011;10093;48.148;8.542;2022-09-09T13:10:43;2.13;;;0.20;;
19861;SDS011;10093;48.148;8.542;2022-09-09T13:13:34;1.23;;;0.10;;
19861;SDS011;10093;48.148;8.542;2022-09-09T13:16:02;2.20;;;0.10;;
19861;SDS011;10093;48.148;8.542;2022-09-09T13:18:33;2.08;;;0.20;;
19861;SDS011;10093;48.148;8.542;2022-09-09T13:21:00;1.80;;;0.20;;
19861;SDS011;10093;48.148;8.542;2022-09-09T13:23:27;4.13;;;0.30;;
19861;SDS011;10093;48.148;8.542;2022-09-09T13:25:58;3.80;;;0.20;;
19861;SDS011;10093;48.148;8.542;2022-09-09T13:28:44;2.00;;;0.10;;
19861;SDS011;10093;48.148;8.542;2022-09-09T13:31:21;1.88;;;0.20;;
19861;SDS011;10093;48.148;8.542;2022-09-09T13:33:49;1.98;;;0.10;;
19861;SDS011;10093;48.148;8.542;2022-09-09T13:36:15;1.48;;;0.10;;
19861;SDS011;10093;48.148;8.542;2022-09-09T13:41:46;5.97;;;0.20;;
19861;SDS011;10093;48.148;8.542;2022-09-09T13:44:20;1.85;;;0.20;;
19861;SDS011;10093;48.148;8.542;2022-09-09T13:47:05;3.20;;;0.30;;
19861;SDS011;10093;48.148;8.542;2022-09-09T13:49:33;2.38;;;0.20;;
19861;SDS011;10093;48.148;8.542;2022-09-09T13:52:03;3.58;;;0.20;;
19861;SDS011;10093;48.148;8.542;2022-09-09T13:54:30;1.58;;;0.17;;
19861;SDS011;10093;48.148;8.542;2022-09-09T13:56:56;3.20;;;0.10;;
19861;SDS011;10093;48.148;8.542;2022-09-09T13:59:22;1.20;;;0.20;;
19861;SDS011;10093;48.148;8.542;2022-09-09T14:01:49;1.40;;;0.10;;
19861;SDS011;10093;48.148;8.542;2022-09-09T14:04:17;0.77;;;0.10;;
19861;SDS011;10093;48.148;8.542;2022-09-09T14:06:46;4.22;;;0.20;;
19861;SDS011;10093;48.148;8.542;2022-09-09T14:09:13;2.47;;;0.20;;
19861;SDS011;10093;48.148;8.542;2022-09-09T14:11:40;2.95;;;0.20;;
19861;SDS011;10093;48.148;8.542;2022-09-09T14:14:06;2.47;;;0.20;;
19861;SDS011;10093;48.148;8.542;2022-09-09T14:16:32;0.75;;;0.15;;
19861;SDS011;10093;48.148;8.542;2022-09-09T14:18:58;2.30;;;0.28;;
19861;SDS011;10093;48.148;8.542;2022-09-09T14:21:24;2.00;;;0.10;;
19861;SDS011;10093;48.148;8.542;2022-09-09T14:23:51;4.57;;;0.20;;
19861;SDS011;10093;48.148;8.542;2022-09-09T14:26:20;4.38;;;0.22;;
19861;SDS011;10093;48.148;8.542;2022-09-09T14:28:47;0.60;;;0.10;;
19861;SDS011;10093;48.148;8.542;2022-09-09T14:31:13;0.38;;;0.10;;
19861;SDS011;10093;48.148;8.542;2022-09-09T14:33:39;0.30;;;0.10;;
19861;SDS011;10093;48.148;8.542;2022-09-09T14:36:05;0.40;;;0.10;;
19861;SDS011;10093;48.148;8.542;2022-09-09T14:38:32;1.10;;;0.10;;
19861;SDS011;10093;48.148;8.542;2022-09-09T14:41:03;0.55;;;0.10;;
19861;SDS011;10093;48.148;8.542;2022-09-09T14:43:29;1.08;;;0.10;;
19861;SDS011;10093;48.148;8.542;2022-09-09T14:45:57;1.70;;;0.10;;
19861;SDS011;10093;48.148;8.542;2022-09-09T14:51:04;1.50;;;0.03;;
19861;SDS011;10093;48.148;8.542;2022-09-09T14:53:33;1.25;;;0.13;;
19861;SDS011;10093;48.148;8.542;2022-09-09T14:56:03;1.85;;;0.10;;
19861;SDS011;10093;48.148;8.542;2022-09-09T14:58:31;1.00;;;0.10;;
19861;SDS011;10093;48.148;8.542;2022-09-09T15:01:01;0.80;;;0.00;;
19861;SDS011;10093;48.148;8.542;2022-09-09T15:03:28;2.33;;;0.10;;
19861;SDS011;10093;48.148;8.542;2022-09-09T15:05:53;2.92;;;0.10;;
19861;SDS011;10093;48.148;8.542;2022-09-09T15:08:19;0.47;;;0.10;;
19861;SDS011;10093;48.148;8.542;2022-09-09T15:10:45;1.15;;;0.10;;
19861;SDS011;10093;48.148;8.542;2022-09-09T15:13:12;1.33;;;0.10;;
19861;SDS011;10093;48.148;8.542;2022-09-09T15:15:41;1.13;;;0.10;;
19861;SDS011;10093;48.148;8.542;2022-09-09T15:18:08;0.73;;;0.10;;
19861;SDS011;10093;48.148;8.542;2022-09-09T15:20:33;1.85;;;0.10;;
19861;SDS011;10093;48.148;8.542;2022-09-09T15:23:00;4.28;;;0.10;;
19861;SDS011;10093;48.148;8.542;2022-09-09T15:25:26;0.60;;;0.10;;
19861;SDS011;10093;48.148;8.542;2022-09-09T15:27:51;0.70;;;0.10;;
19861;SDS011;10093;48.148;8.542;2022-09-09T15:30:17;1.83;;;0.20;;
19861;SDS011;10093;48.148;8.542;2022-09-09T15:32:42;1.13;;;0.10;;
19861;SDS011;10093;48.148;8.542;2022-09-09T15:35:08;1.02;;;0.08;;
19861;SDS011;10093;48.148;8.542;2022-09-09T15:37:34;2.15;;;0.10;;
19861;SDS011;10093;48.148;8.542;2022-09-09T15:39:59;3.25;;;0.10;;
19861;SDS011;10093;48.148;8.542;2022-09-09T15:42:25;1.42;;;0.15;;
19861;SDS011;10093;48.148;8.542;2022-09-09T15:44:51;2.10;;;0.10;;
19861;SDS011;10093;48.148;8.542;2022-09-09T15:47:17;1.70;;;0.10;;
19861;SDS011;10093;48.148;8.542;2022-09-09T15:49:42;2.47;;;0.10;;
19861;SDS011;10093;48.148;8.542;2022-09-09T15:52:09;1.90;;;0.13;;
19861;SDS011;10093;48.148;8.542;2022-09-09T15:54:36;0.65;;;0.17;;
19861;SDS011;10093;48.148;8.542;2022-09-09T15:57:04;0.65;;;0.20;;
19861;SDS011;10093;48.148;8.542;2022-09-09T15:59:36;1.55;;;0.20;;
19861;SDS011;10093;48.148;8.542;2022-09-09T16:02:02;1.42;;;0.10;;
19861;SDS011;10093;48.148;8.542;2022-09-09T16:04:28;1.35;;;0.20;;
19861;SDS011;10093;48.148;8.542;2022-09-09T16:07:01;2.05;;;0.20;;
19861;SDS011;10093;48.148;8.542;2022-09-09T16:09:29;2.03;;;0.10;;
19861;SDS011;10093;48.148;8.542;2022-09-09T16:11:56;3.30;;;0.20;;
19861;SDS011;10093;48.148;8.542;2022-09-09T16:14:23;1.95;;;0.20;;
19861;SDS011;10093;48.148;8.542;2022-09-09T16:16:50;1.00;;;0.10;;
19861;SDS011;10093;48.148;8.542;2022-09-09T16:19:16;0.82;;;0.10;;
19861;SDS011;10093;48.148;8.542;2022-09-09T16:21:42;4.45;;;0.10;;
19861;SDS011;10093;48.148;8.542;2022-09-09T16:24:10;1.33;;;0.20;;
19861;SDS011;10093;48.148;8.542;2022-09-09T16:26:39;1.33;;;0.30;;
19861;SDS011;10093;48.148;8.542;2022-09-09T16:29:08;4.68;;;0.40;;
19861;SDS011;10093;48.148;8.542;2022-09-09T16:31:34;2.85;;;0.20;;
19861;SDS011;10093;48.148;8.542;2022-09-09T16:34:00;2.25;;;0.20;;
19861;SDS011;10093;48.148;8.542;2022-09-09T16:36:28;1.25;;;0.22;;
19861;SDS011;10093;48.148;8.542;2022-09-09T16:38:58;0.82;;;0.20;;
19861;SDS011;10093;48.148;8.542;2022-09-09T16:41:26;2.50;;;0.20;;
19861;SDS011;10093;48.148;8.542;2022-09-09T16:43:54;1.48;;;0.20;;
19861;SDS011;10093;48.148;8.542;2022-09-09T16:46:21;2.45;;;0.20;;
19861;SDS011;10093;48.148;8.542;2022-09-09T16:48:49;1.75;;;0.20;;
19861;SDS011;10093;48.148;8.542;2022-09-09T16:51:16;1.80;;;0.20;;
19861;SDS011;10093;48.148;8.542;2022-09-09T16:53:44;1.17;;;0.13;;
19861;SDS011;10093;48.148;8.542;2022-09-09T16:56:15;1.38;;;0.20;;
19861;SDS011;10093;48.148;8.542;2022-09-09T16:58:43;2.40;;;0.20;;
19861;SDS011;10093;48.148;8.542;2022-09-09T17:01:15;0.28;;;0.10;;
19861;SDS011;10093;48.148;8.542;2022-09-09T17:03:40;6.68;;;0.30;;
19861;SDS011;10093;48.148;8.542;2022-09-09T17:06:11;1.00;;;0.13;;
19861;SDS011;10093;48.148;8.542;2022-09-09T17:08:38;2.63;;;0.30;;
19861;SDS011;10093;48.148;8.542;2022-09-09T17:11:16;1.65;;;0.10;;
19861;SDS011;10093;48.148;8.542;2022-09-09T17:13:43;1.80;;;0.20;;
19861;SDS011;10093;48.148;8.542;2022-09-09T17:16:13;2.15;;;0.20;;
19861;SDS011;10093;48.148;8.542;2022-09-09T17:18:40;3.00;;;0.30;;
19861;SDS011;10093;48.148;8.542;2022-09-09T17:21:08;2.55;;;0.30;;
19861;SDS011;10093;48.148;8.542;2022-09-09T17:23:38;3.55;;;0.25;;
19861;SDS011;10093;48.148;8.542;2022-09-09T17:26:05;1.58;;;0.25;;
19861;SDS011;10093;48.148;8.542;2022-09-09T17:28:33;2.05;;;0.30;;
19861;SDS011;10093;48.148;8.542;2022-09-09T17:30:59;3.38;;;0.22;;
19861;SDS011;10093;48.148;8.542;2022-09-09T17:33:27;2.28;;;0.30;;
19861;SDS011;10093;48.148;8.542;2022-09-09T17:35:58;2.83;;;0.22;;
19861;SDS011;10093;48.148;8.542;2022-09-09T17:38:32;1.42;;;0.30;;
19861;SDS011;10093;48.148;8.542;2022-09-09T17:41:04;2.33;;;0.30;;